Time;durP1;ratioP1;P1;durP2;ratioP2;P2;SDS_P1;SDS_P2;PMS_P1;PMS_P2;Temp;Humidity;BMP_temperature;BMP_pressure;BME280_temperature;BME280_humidity;BME280_pressure;Samples;Min_cycle;Max_cycle;Signal;HPM_P1;HPM_P2
2022/10/06 00:00:43;;;;;;;;;;;;;;;13.19;100.00;101909.00;5051675;28;20669;-54
2022/10/06 00:03:11;;;;;;;;;;;;;;;13.13;100.00;101916.44;5049223;28;19924;-53
2022/10/06 00:05:41;;;;;;;;;;;;;;;13.14;100.00;101918.16;5050725;28;19932;-54
2022/10/06 00:08:09;;;;;;;;;;;;;;;13.07;100.00;101916.81;5050880;28;19925;-55
2022/10/06 00:10:38;;;;;;;;;;;;;;;13.05;100.00;101922.19;5050172;28;19921;-54
2022/10/06 00:13:07;;;;;;;;;;;;;;;12.99;100.00;101935.75;5050217;28;19924;-54
2022/10/06 00:15:37;;;;;;;;;;;;;;;12.94;100.00;101935.16;5048552;28;19921;-53
2022/10/06 00:18:05;;;;;;;;;;;;;;;12.92;100.00;101935.25;5048925;28;20027;-55
2022/10/06 00:20:33;;;;;;;;;;;;;;;12.93;100.00;101941.41;5050698;28;19921;-51
2022/10/06 00:23:02;;;;;;;;;;;;;;;12.84;100.00;101948.91;5050408;28;20445;-53
2022/10/06 00:25:30;;;;;;;;;;;;;;;12.82;100.00;101956.06;5050593;28;19959;-53
2022/10/06 00:27:58;;;;;;;;;;;;;;;12.75;100.00;101954.72;5050262;28;19924;-54
2022/10/06 00:30:27;;;;;;;;;;;;;;;12.76;100.00;101966.09;5051707;28;20351;-54
2022/10/06 00:32:57;;;;;;;;;;;;;;;12.70;100.00;101977.03;5052558;28;19921;-53
2022/10/06 00:35:25;;;;;;;;;;;;;;;12.68;100.00;101974.47;5050282;28;19924;-55
2022/10/06 00:37:53;;;;;;;;;;;;;;;12.59;100.00;101973.19;5050541;28;20413;-53
2022/10/06 00:40:23;;;;;;;;;;;;;;;12.62;100.00;101988.84;5050248;28;19921;-54
2022/10/06 00:42:53;;;;;;;;;;;;;;;12.65;100.00;101995.75;5052487;28;19925;-54
2022/10/06 00:45:23;;;;;;;;;;;;;;;12.66;100.00;101997.44;5054414;28;20020;-53
2022/10/06 00:47:51;;;;;;;;;;;;;;;12.63;100.00;102001.09;5052328;28;20421;-53
2022/10/06 00:50:21;;;;;;;;;;;;;;;12.60;100.00;102008.38;5053984;28;19982;-54
2022/10/06 00:52:49;;;;;;;;;;;;;;;12.59;100.00;102018.03;5053733;28;20252;-53
2022/10/06 00:55:19;;;;;;;;;;;;;;;12.59;100.00;102011.94;5053713;28;19921;-55
2022/10/06 00:57:48;;;;;;;;;;;;;;;12.56;100.00;102023.50;5053994;28;19925;-54
2022/10/06 01:00:16;;;;;;;;;;;;;;;12.57;100.00;102030.50;5055662;28;19982;-54
2022/10/06 01:02:47;;;;;;;;;;;;;;;12.55;100.00;102028.88;5056087;28;19982;-54
2022/10/06 01:05:18;;;;;;;;;;;;;;;12.55;100.00;102045.53;5054971;28;19925;-54
2022/10/06 01:07:45;;;;;;;;;;;;;;;12.46;100.00;102039.00;5054093;28;19982;-53
2022/10/06 01:10:13;;;;;;;;;;;;;;;12.48;100.00;102042.38;5053146;28;19921;-50
2022/10/06 01:12:41;;;;;;;;;;;;;;;12.45;100.00;102058.38;5053250;28;20015;-53
2022/10/06 01:15:11;;;;;;;;;;;;;;;12.40;100.00;102052.50;5055483;28;19925;-52
2022/10/06 01:17:41;;;;;;;;;;;;;;;12.34;100.00;102056.31;5052188;28;19927;-52
2022/10/06 01:20:11;;;;;;;;;;;;;;;12.33;100.00;102061.69;5053405;28;19925;-54
2022/10/06 01:22:42;;;;;;;;;;;;;;;12.36;100.00;102058.88;5053482;28;20015;-53
2022/10/06 01:25:11;;;;;;;;;;;;;;;12.31;100.00;102068.81;5053395;28;19924;-54
2022/10/06 01:27:40;;;;;;;;;;;;;;;12.26;100.00;102078.78;5054031;28;20375;-52
2022/10/06 01:30:09;;;;;;;;;;;;;;;12.21;100.00;102081.63;5052546;28;19947;-54
2022/10/06 01:32:38;;;;;;;;;;;;;;;12.17;100.00;102086.25;5051385;28;19927;-53
2022/10/06 01:35:07;;;;;;;;;;;;;;;12.15;100.00;102089.88;5054255;28;20369;-52
2022/10/06 01:37:35;;;;;;;;;;;;;;;12.14;100.00;102091.66;5053527;28;19931;-54
2022/10/06 01:40:04;;;;;;;;;;;;;;;12.11;100.00;102097.09;5051947;28;19927;-54
2022/10/06 01:42:34;;;;;;;;;;;;;;;12.12;100.00;102097.94;5052823;28;20370;-53
2022/10/06 01:45:02;;;;;;;;;;;;;;;12.09;100.00;102106.00;5054320;28;20397;-54
2022/10/06 01:47:30;;;;;;;;;;;;;;;12.07;100.00;102102.63;5052620;28;20533;-52
2022/10/06 01:49:58;;;;;;;;;;;;;;;12.03;100.00;102109.81;5053153;28;19974;-54
2022/10/06 01:52:26;;;;;;;;;;;;;;;12.02;100.00;102112.53;5052245;28;19932;-54
2022/10/06 01:54:54;;;;;;;;;;;;;;;12.05;100.00;102117.66;5051896;28;19920;-54
2022/10/06 01:57:23;;;;;;;;;;;;;;;11.93;100.00;102119.94;5053957;28;20439;-53
2022/10/06 01:59:52;;;;;;;;;;;;;;;11.97;100.00;102124.16;5055218;28;20490;-54
2022/10/06 02:02:21;;;;;;;;;;;;;;;11.97;100.00;102126.81;5055095;28;19978;-54
2022/10/06 02:04:49;;;;;;;;;;;;;;;11.95;100.00;102126.00;5054814;28;19920;-54
2022/10/06 02:07:17;;;;;;;;;;;;;;;11.98;100.00;102127.66;5054138;28;19920;-55
2022/10/06 02:09:45;;;;;;;;;;;;;;;11.97;100.00;102140.00;5052837;28;19925;-55
2022/10/06 02:12:13;;;;;;;;;;;;;;;11.93;100.00;102141.03;5051228;28;19921;-55
2022/10/06 02:14:42;;;;;;;;;;;;;;;11.96;100.00;102135.63;5052693;28;19920;-54
2022/10/06 02:17:11;;;;;;;;;;;;;;;12.04;100.00;102137.03;5051425;28;20252;-55
2022/10/06 02:19:38;;;;;;;;;;;;;;;11.93;100.00;102143.69;5054147;28;20406;-55
2022/10/06 02:22:06;;;;;;;;;;;;;;;11.90;100.00;102141.22;5053846;28;19921;-55
2022/10/06 02:24:34;;;;;;;;;;;;;;;11.87;100.00;102146.59;5052740;28;19924;-55
2022/10/06 02:27:02;;;;;;;;;;;;;;;11.84;100.00;102167.84;5052725;28;19927;-59
2022/10/06 02:29:30;;;;;;;;;;;;;;;11.78;100.00;102169.00;5052172;28;19978;-58
2022/10/06 02:31:59;;;;;;;;;;;;;;;11.82;100.00;102157.41;5053987;28;20008;-60
2022/10/06 02:34:28;;;;;;;;;;;;;;;11.76;100.00;102165.59;5054371;28;19974;-56
2022/10/06 02:36:56;;;;;;;;;;;;;;;11.72;100.00;102177.22;5053136;28;19959;-55
2022/10/06 02:39:24;;;;;;;;;;;;;;;11.74;100.00;102182.41;5051828;28;19974;-54
2022/10/06 02:41:52;;;;;;;;;;;;;;;11.64;100.00;102177.59;5052572;28;19920;-54
2022/10/06 02:44:20;;;;;;;;;;;;;;;11.63;100.00;102196.09;5051884;28;19920;-54
2022/10/06 02:46:48;;;;;;;;;;;;;;;11.58;100.00;102198.13;5053995;28;19928;-55
2022/10/06 02:49:17;;;;;;;;;;;;;;;11.55;100.00;102214.06;5054142;28;20019;-55
2022/10/06 02:51:46;;;;;;;;;;;;;;;11.57;100.00;102199.03;5053952;28;19928;-55
2022/10/06 02:54:14;;;;;;;;;;;;;;;11.53;100.00;102200.97;5052393;28;20410;-54
2022/10/06 02:56:42;;;;;;;;;;;;;;;11.57;100.00;102217.50;5051880;28;19951;-54
2022/10/06 02:59:10;;;;;;;;;;;;;;;11.47;100.00;102201.25;5049978;28;19975;-54
2022/10/06 03:01:37;;;;;;;;;;;;;;;11.39;100.00;102209.53;5051484;28;19924;-54
2022/10/06 03:04:06;;;;;;;;;;;;;;;11.41;100.00;102206.81;5050829;28;20324;-54
2022/10/06 03:06:35;;;;;;;;;;;;;;;11.34;100.00;102219.41;5051655;28;19974;-54
2022/10/06 03:09:05;;;;;;;;;;;;;;;11.32;100.00;102218.66;5052208;28;19982;-54
2022/10/06 03:11:34;;;;;;;;;;;;;;;11.28;100.00;102232.88;5051555;28;20407;-53
2022/10/06 03:14:02;;;;;;;;;;;;;;;11.30;100.00;102234.53;5051450;28;20307;-55
2022/10/06 03:16:32;;;;;;;;;;;;;;;11.25;100.00;102238.28;5052717;28;20016;-54
2022/10/06 03:19:00;;;;;;;;;;;;;;;11.21;100.00;102244.59;5050114;28;20546;-54
2022/10/06 03:21:29;;;;;;;;;;;;;;;11.18;100.00;102248.25;5052412;28;19974;-54
2022/10/06 03:23:59;;;;;;;;;;;;;;;11.20;100.00;102256.06;5051506;28;19921;-54
2022/10/06 03:26:28;;;;;;;;;;;;;;;11.16;100.00;102263.25;5050526;28;19921;-54
2022/10/06 03:28:56;;;;;;;;;;;;;;;11.11;100.00;102259.97;5050718;28;19927;-53
2022/10/06 03:31:24;;;;;;;;;;;;;;;11.08;100.00;102254.84;5051060;28;20126;-53
2022/10/06 03:33:53;;;;;;;;;;;;;;;11.01;100.00;102263.94;5051391;28;19928;-53
2022/10/06 03:36:22;;;;;;;;;;;;;;;11.02;100.00;102268.28;5051823;28;20417;-54
2022/10/06 03:38:50;;;;;;;;;;;;;;;11.01;100.00;102272.69;5051223;28;20311;-55
2022/10/06 03:41:20;;;;;;;;;;;;;;;10.95;100.00;102279.09;5050907;28;20000;-54
2022/10/06 03:43:49;;;;;;;;;;;;;;;10.90;100.00;102281.06;5051069;28;19925;-53
2022/10/06 03:46:18;;;;;;;;;;;;;;;10.86;100.00;102278.63;5052264;28;19925;-55
2022/10/06 03:48:47;;;;;;;;;;;;;;;10.87;100.00;102290.88;5049902;28;20352;-53
2022/10/06 03:51:16;;;;;;;;;;;;;;;10.86;100.00;102294.44;5049950;28;19978;-52
2022/10/06 03:53:45;;;;;;;;;;;;;;;10.80;100.00;102295.56;5052339;28;19932;-54
2022/10/06 03:56:14;;;;;;;;;;;;;;;10.84;100.00;102305.03;5051907;28;19983;-54
2022/10/06 03:58:44;;;;;;;;;;;;;;;10.85;100.00;102306.72;5050741;28;20295;-53
2022/10/06 04:01:13;;;;;;;;;;;;;;;10.78;100.00;102302.63;5049914;28;20292;-52
2022/10/06 04:03:41;;;;;;;;;;;;;;;10.78;100.00;102315.78;5052688;28;20425;-52
2022/10/06 04:06:11;;;;;;;;;;;;;;;10.70;100.00;102321.38;5053085;28;20371;-54
2022/10/06 04:08:40;;;;;;;;;;;;;;;10.70;100.00;102331.06;5051350;28;19921;-54
2022/10/06 04:11:09;;;;;;;;;;;;;;;10.71;100.00;102320.47;5050104;28;20339;-53
2022/10/06 04:13:37;;;;;;;;;;;;;;;10.69;100.00;102324.06;5050442;28;19921;-53
2022/10/06 04:16:13;;;;;;;;;;;;;;;10.64;100.00;102326.91;5052597;28;19921;-51
2022/10/06 04:18:41;;;;;;;;;;;;;;;10.61;100.00;102337.56;5056524;28;19925;-52
2022/10/06 04:21:09;;;;;;;;;;;;;;;10.58;100.00;102335.03;5054311;28;19920;-52
2022/10/06 04:23:37;;;;;;;;;;;;;;;10.60;100.00;102339.31;5055235;28;19921;-54
2022/10/06 04:26:08;;;;;;;;;;;;;;;10.57;100.00;102347.34;5054686;28;19925;-54
2022/10/06 04:28:37;;;;;;;;;;;;;;;10.49;100.00;102355.56;5054043;28;19920;-54
2022/10/06 04:31:07;;;;;;;;;;;;;;;10.50;100.00;102366.94;5053978;28;19927;-53
2022/10/06 04:33:39;;;;;;;;;;;;;;;10.47;100.00;102374.94;5053355;28;20295;-53
2022/10/06 04:36:08;;;;;;;;;;;;;;;10.43;100.00;102375.97;5054527;28;20291;-52
2022/10/06 04:38:36;;;;;;;;;;;;;;;10.37;100.00;102370.97;5054598;28;19959;-54
2022/10/06 04:41:05;;;;;;;;;;;;;;;10.37;100.00;102376.25;5054192;28;20276;-53
2022/10/06 04:43:33;;;;;;;;;;;;;;;10.37;100.00;102376.25;5054133;28;20357;-60
2022/10/06 04:46:04;;;;;;;;;;;;;;;10.35;100.00;102373.69;5054882;28;19924;-54
2022/10/06 04:48:54;;;;;;;;;;;;;;;10.30;100.00;102386.13;5052629;28;19967;-52
2022/10/06 04:51:23;;;;;;;;;;;;;;;10.24;100.00;102381.97;5053623;28;20019;-59
2022/10/06 04:53:51;;;;;;;;;;;;;;;10.25;100.00;102385.44;5053716;28;19933;-58
2022/10/06 04:56:20;;;;;;;;;;;;;;;10.23;100.00;102396.00;5053809;28;20441;-53
2022/10/06 04:58:49;;;;;;;;;;;;;;;10.20;100.00;102396.13;5054827;28;19928;-54
2022/10/06 05:01:18;;;;;;;;;;;;;;;10.18;100.00;102395.31;5053409;28;19925;-53
2022/10/06 05:03:47;;;;;;;;;;;;;;;10.13;100.00;102399.94;5054171;28;19921;-52
2022/10/06 05:06:17;;;;;;;;;;;;;;;10.11;100.00;102405.22;5055222;28;19929;-53
2022/10/06 05:08:47;;;;;;;;;;;;;;;10.12;100.00;102408.72;5053883;28;19920;-52
2022/10/06 05:11:15;;;;;;;;;;;;;;;10.12;100.00;102416.63;5053620;28;19982;-59
2022/10/06 05:13:49;;;;;;;;;;;;;;;10.11;100.00;102430.66;5054915;28;20340;-53
2022/10/06 05:16:17;;;;;;;;;;;;;;;10.06;100.00;102428.22;5055611;28;19925;-58
2022/10/06 05:18:45;;;;;;;;;;;;;;;10.06;100.00;102432.59;5055681;28;19979;-59
2022/10/06 05:21:14;;;;;;;;;;;;;;;10.08;100.00;102436.06;5055780;28;20410;-59
2022/10/06 05:23:44;;;;;;;;;;;;;;;10.02;100.00;102438.88;5055153;28;19971;-59
2022/10/06 05:26:12;;;;;;;;;;;;;;;9.97;100.00;102439.91;5053317;28;20038;-53
2022/10/06 05:28:40;;;;;;;;;;;;;;;10.03;100.00;102448.50;5052205;28;19971;-54
2022/10/06 05:31:11;;;;;;;;;;;;;;;9.95;100.00;102448.78;5052988;28;20295;-52
2022/10/06 05:33:39;;;;;;;;;;;;;;;9.96;100.00;102450.50;5052392;28;20271;-55
2022/10/06 05:36:09;;;;;;;;;;;;;;;9.92;100.00;102446.28;5054634;28;19960;-55
2022/10/06 05:38:37;;;;;;;;;;;;;;;9.89;100.00;102454.28;5053288;28;19921;-52
2022/10/06 05:41:07;;;;;;;;;;;;;;;9.87;100.00;102456.97;5053079;28;19990;-52
2022/10/06 05:43:35;;;;;;;;;;;;;;;9.83;100.00;102458.00;5053035;28;19990;-49
2022/10/06 05:46:04;;;;;;;;;;;;;;;9.80;100.00;102458.94;5052882;28;19975;-52
2022/10/06 05:48:32;;;;;;;;;;;;;;;9.79;100.00;102467.75;5051060;28;19920;-52
2022/10/06 05:51:01;;;;;;;;;;;;;;;9.79;100.00;102475.63;5052676;28;19921;-54
2022/10/06 05:53:29;;;;;;;;;;;;;;;9.77;100.00;102472.19;5052969;28;19920;-59
2022/10/06 05:56:08;;;;;;;;;;;;;;;9.74;100.00;102492.47;5054848;28;19967;-59
2022/10/06 05:58:37;;;;;;;;;;;;;;;9.75;100.00;102492.41;5054624;28;19925;-59
2022/10/06 06:01:06;;;;;;;;;;;;;;;9.74;100.00;102495.94;5052898;28;19944;-59
2022/10/06 06:03:34;;;;;;;;;;;;;;;9.76;100.00;102496.75;5052689;28;19949;-58
2022/10/06 06:06:02;;;;;;;;;;;;;;;9.72;100.00;102512.66;5054891;28;19927;-60
2022/10/06 06:08:30;;;;;;;;;;;;;;;9.72;100.00;102510.03;5054558;28;20410;-58
2022/10/06 06:11:06;;;;;;;;;;;;;;;9.77;100.00;102511.59;5054802;28;19921;-58
2022/10/06 06:13:35;;;;;;;;;;;;;;;9.73;100.00;102523.13;5054948;28;19975;-59
2022/10/06 06:16:04;;;;;;;;;;;;;;;9.77;100.00;102521.25;5054440;28;20372;-59
2022/10/06 06:18:33;;;;;;;;;;;;;;;9.76;100.00;102524.78;5054647;28;19925;-52
2022/10/06 06:21:02;;;;;;;;;;;;;;;9.71;100.00;102530.22;5054174;28;19921;-59
2022/10/06 06:23:31;;;;;;;;;;;;;;;9.71;100.00;102532.00;5054844;28;19925;-59
2022/10/06 06:26:00;;;;;;;;;;;;;;;9.73;100.00;102540.66;5054639;28;19974;-59
2022/10/06 06:28:30;;;;;;;;;;;;;;;9.74;100.00;102545.88;5053388;28;19925;-59
2022/10/06 06:31:01;;;;;;;;;;;;;;;9.73;100.00;102545.91;5051974;28;19990;-56
2022/10/06 06:33:29;;;;;;;;;;;;;;;9.73;100.00;102559.06;5053922;28;19920;-59
2022/10/06 06:36:02;;;;;;;;;;;;;;;9.78;100.00;102559.75;5054036;28;20654;-58
2022/10/06 06:38:30;;;;;;;;;;;;;;;9.79;100.00;102556.22;5052169;28;19947;-59
2022/10/06 06:40:59;;;;;;;;;;;;;;;9.82;100.00;102562.22;5052887;28;19928;-58
2022/10/06 06:43:27;;;;;;;;;;;;;;;9.86;100.00;102562.97;5054543;28;20015;-58
2022/10/06 06:46:03;;;;;;;;;;;;;;;9.90;100.00;102561.13;5054445;28;19931;-59
2022/10/06 06:48:31;;;;;;;;;;;;;;;9.96;100.00;102571.41;5050688;28;20028;-59
2022/10/06 06:51:00;;;;;;;;;;;;;;;10.03;100.00;102582.56;5052108;28;19921;-59
2022/10/06 06:53:27;;;;;;;;;;;;;;;10.08;100.00;102580.63;5052057;28;19998;-59
2022/10/06 06:55:55;;;;;;;;;;;;;;;10.17;100.00;102590.81;5052815;28;19920;-58
2022/10/06 06:58:23;;;;;;;;;;;;;;;10.24;100.00;102592.31;5053696;28;20383;-59
2022/10/06 07:00:52;;;;;;;;;;;;;;;10.32;100.00;102594.66;5053123;28;20421;-59
2022/10/06 07:03:21;;;;;;;;;;;;;;;10.47;100.00;102590.63;5050503;28;19921;-59
2022/10/06 07:06:10;;;;;;;;;;;;;;;10.69;100.00;102588.09;5051434;28;19920;-59
2022/10/06 07:08:41;;;;;;;;;;;;;;;10.78;100.00;102589.50;5052095;28;20363;-59
2022/10/06 07:11:13;;;;;;;;;;;;;;;10.92;100.00;102595.09;5053802;28;20331;-58
2022/10/06 07:13:42;;;;;;;;;;;;;;;10.98;100.00;102599.25;5053552;28;19967;-58
2022/10/06 07:27:20;;;;;;;;;;;;;;;11.72;100.00;102617.34;5051693;28;19931;-59
2022/10/06 07:29:50;;;;;;;;;;;;;;;11.96;100.00;102622.56;5051453;28;19924;-59
2022/10/06 07:32:20;;;;;;;;;;;;;;;12.02;100.00;102635.47;5049329;28;20020;-59
2022/10/06 07:34:49;;;;;;;;;;;;;;;12.09;100.00;102625.50;5052165;28;19970;-59
2022/10/06 07:37:18;;;;;;;;;;;;;;;12.33;100.00;102632.34;5052140;28;20342;-59
2022/10/06 07:39:48;;;;;;;;;;;;;;;12.47;100.00;102637.00;5051500;28;19928;-59
2022/10/06 07:42:16;;;;;;;;;;;;;;;12.72;100.00;102646.47;5052450;28;19931;-59
2022/10/06 07:45:36;;;;;;;;;;;;;;;12.74;100.00;102651.69;5051637;28;19925;-60
2022/10/06 07:47:32;;;;;;;;;;;;;;;12.96;100.00;102659.47;5051475;28;19924;-59
2022/10/06 07:50:02;;;;;;;;;;;;;;;13.28;100.00;102662.34;5053146;28;19924;-59
2022/10/06 07:52:30;;;;;;;;;;;;;;;13.45;100.00;102667.72;5053023;28;19921;-55
2022/10/06 07:54:58;;;;;;;;;;;;;;;13.66;100.00;102665.84;5052955;28;20011;-55
2022/10/06 07:57:33;;;;;;;;;;;;;;;13.76;100.00;102679.44;5052408;28;20007;-55
2022/10/06 08:00:03;;;;;;;;;;;;;;;13.65;100.00;102687.91;5051170;28;20355;-55
2022/10/06 08:02:32;;;;;;;;;;;;;;;14.02;100.00;102688.72;5051327;28;19920;-54
2022/10/06 08:05:05;;;;;;;;;;;;;;;14.08;100.00;102694.63;5053263;28;20359;-56
2022/10/06 08:07:34;;;;;;;;;;;;;;;14.29;100.00;102698.84;5052624;28;19920;-54
2022/10/06 08:10:02;;;;;;;;;;;;;;;14.20;100.00;102702.78;5050383;28;19921;-55
2022/10/06 08:12:38;;;;;;;;;;;;;;;14.63;100.00;102699.75;5048641;28;19947;-54
2022/10/06 08:15:10;;;;;;;;;;;;;;;14.92;100.00;102697.31;5050915;28;20011;-53
2022/10/06 08:17:38;;;;;;;;;;;;;;;14.90;100.00;102704.50;5050872;28;19959;-56
2022/10/06 08:20:08;;;;;;;;;;;;;;;15.11;100.00;102705.13;5050824;28;20352;-55
2022/10/06 08:22:38;;;;;;;;;;;;;;;15.09;100.00;102708.81;5051494;28;19928;-54
2022/10/06 08:25:08;;;;;;;;;;;;;;;15.30;100.00;102697.00;5052488;28;19927;-56
2022/10/06 08:27:37;;;;;;;;;;;;;;;15.68;100.00;102701.94;5050608;28;19968;-55
2022/10/06 08:30:06;;;;;;;;;;;;;;;15.82;100.00;102705.63;5050152;28;20410;-61
2022/10/06 08:32:34;;;;;;;;;;;;;;;15.69;100.00;102711.63;5052273;28;19925;-61
2022/10/06 08:35:02;;;;;;;;;;;;;;;15.91;100.00;102710.41;5052657;28;20405;-61
2022/10/06 08:37:31;;;;;;;;;;;;;;;16.12;100.00;102710.09;5053025;28;20368;-60
2022/10/06 08:39:59;;;;;;;;;;;;;;;16.09;100.00;102712.91;5051210;28;19928;-61
2022/10/06 08:42:31;;;;;;;;;;;;;;;16.09;100.00;102716.44;5049556;28;19929;-61
2022/10/06 08:45:02;;;;;;;;;;;;;;;16.08;100.00;102714.72;5050003;28;19962;-61
2022/10/06 08:47:33;;;;;;;;;;;;;;;16.28;100.00;102717.97;5052202;28;19927;-61
2022/10/06 08:50:03;;;;;;;;;;;;;;;16.33;99.91;102724.72;5051551;28;19927;-61
2022/10/06 08:52:42;;;;;;;;;;;;;;;16.61;99.02;102727.53;5049954;28;20035;-62
2022/10/06 08:55:18;;;;;;;;;;;;;;;16.70;99.35;102737.56;5051515;28;19948;-62
2022/10/06 08:57:50;;;;;;;;;;;;;;;16.72;96.83;102741.00;5052712;28;19921;-62
2022/10/06 09:00:18;;;;;;;;;;;;;;;16.70;96.02;102737.56;5052555;28;20288;-62
2022/10/06 09:02:49;;;;;;;;;;;;;;;16.84;98.36;102734.91;5050945;28;20003;-57
2022/10/06 09:05:24;;;;;;;;;;;;;;;17.00;97.13;102748.16;5052243;28;19934;-55
2022/10/06 09:07:58;;;;;;;;;;;;;;;16.97;96.46;102752.78;5053786;28;19927;-55
2022/10/06 09:10:38;;;;;;;;;;;;;;;17.13;94.48;102755.34;5053656;28;19925;-56
2022/10/06 09:13:09;;;;;;;;;;;;;;;17.09;95.34;102753.84;5054627;28;19974;-56
2022/10/06 09:15:40;;;;;;;;;;;;;;;17.04;92.88;102752.31;5055992;28;19971;-56
2022/10/06 09:18:12;;;;;;;;;;;;;;;17.21;92.36;102763.69;5052813;28;20284;-55
2022/10/06 09:20:43;;;;;;;;;;;;;;;17.33;91.63;102762.91;5053282;28;19921;-56
2022/10/06 09:23:15;;;;;;;;;;;;;;;17.45;92.75;102773.72;5052266;28;19924;-56
2022/10/06 09:25:43;;;;;;;;;;;;;;;17.58;90.43;102775.47;5054706;28;19921;-56
2022/10/06 09:28:14;;;;;;;;;;;;;;;17.77;90.00;102779.63;5055762;28;20406;-57
2022/10/06 09:30:42;;;;;;;;;;;;;;;17.76;87.81;102777.91;5055573;28;20438;-57
2022/10/06 09:33:16;;;;;;;;;;;;;;;18.05;100.00;102784.00;5052114;28;19924;-58
2022/10/06 09:37:02;;;;;;;13.18;2.03;;;;;;;18.17;88.21;102781.47;5129175;27;20609;-53
2022/10/06 09:39:35;;;;;;;12.30;2.10;;;;;;;18.10;84.77;102778.38;5128696;28;20062;-50
2022/10/06 09:42:11;;;;;;;11.55;1.95;;;;;;;18.24;83.95;102788.09;5128228;28;20409;-51
2022/10/06 09:44:46;;;;;;;9.27;1.85;;;;;;;18.45;82.14;102788.47;5128248;28;20051;-52
2022/10/06 09:47:34;;;;;;;11.43;1.92;;;;;;;18.62;77.52;102787.28;5126734;28;20528;-57
2022/10/06 09:50:13;;;;;;;11.23;2.00;;;;;;;18.64;79.05;102781.84;5128325;28;20074;-58
2022/10/06 09:52:44;;;;;;;9.77;1.77;;;;;;;18.67;75.17;102779.84;5130338;28;20051;-57
2022/10/06 09:55:14;;;;;;;15.75;2.00;;;;;;;18.84;75.26;102785.78;5130295;28;20497;-57
2022/10/06 09:57:49;;;;;;;8.52;1.55;;;;;;;18.90;74.59;102786.25;5130509;28;20055;-57
2022/10/06 10:00:28;;;;;;;9.13;1.90;;;;;;;18.75;74.24;102793.47;5128367;28;20051;-59
2022/10/06 10:02:59;;;;;;;8.43;1.70;;;;;;;19.12;74.89;102791.91;5127801;28;20126;-58
2022/10/06 10:05:30;;;;;;;9.30;2.00;;;;;;;18.91;72.68;102792.47;5130525;28;20043;-58
2022/10/06 10:08:05;;;;;;;9.45;1.95;;;;;;;19.32;73.29;102783.31;5130329;28;20047;-50
2022/10/06 10:10:35;;;;;;;10.55;1.75;;;;;;;19.44;70.64;102789.56;5127901;28;20542;-51
2022/10/06 10:13:17;;;;;;;10.35;1.55;;;;;;;19.39;70.44;102784.56;5119904;28;20044;-52
2022/10/06 10:15:53;;;;;;;12.80;2.27;;;;;;;19.02;67.49;102792.53;5110233;28;20097;-52
2022/10/06 10:18:27;;;;;;;11.93;1.63;;;;;;;19.50;67.16;102790.97;5129621;28;21061;-58
2022/10/06 10:20:57;;;;;;;8.68;1.77;;;;;;;19.71;68.70;102793.88;5129484;28;20100;-58
2022/10/06 10:23:32;;;;;;;10.25;1.50;;;;;;;19.68;67.97;102804.78;5129615;28;20054;-53
2022/10/06 10:26:21;;;;;;;7.30;1.40;;;;;;;19.73;64.15;102794.63;5130163;28;20047;-53
2022/10/06 10:29:10;;;;;;;10.65;1.75;;;;;;;20.06;62.26;102796.59;5129840;28;20566;-53
2022/10/06 10:32:01;;;;;;;9.93;1.77;;;;;;;19.96;63.23;102797.41;5129836;28;20071;-51
2022/10/06 10:34:51;;;;;;;10.98;1.73;;;;;;;20.65;61.13;102792.16;5129628;28;20051;-51
2022/10/06 10:37:24;;;;;;;7.25;1.55;;;;;;;20.68;58.50;102789.31;5129678;28;20104;-55
2022/10/06 10:40:00;;;;;;;9.60;2.03;;;;;;;20.49;59.93;102792.50;5129821;28;20096;-52
2022/10/06 10:42:36;;;;;;;9.05;1.80;;;;;;;20.00;59.09;102796.22;5129475;28;20047;-58
2022/10/06 10:45:10;;;;;;;10.20;1.45;;;;;;;20.02;58.96;102800.47;5129583;28;20055;-59
2022/10/06 10:47:43;;;;;;;10.75;1.83;;;;;;;20.57;59.21;102799.91;5118369;28;20108;-59
2022/10/06 10:50:21;;;;;;;6.45;1.67;;;;;;;20.55;58.56;102800.03;5112700;28;20050;-59
2022/10/06 10:52:51;;;;;;;9.40;1.55;;;;;;;20.31;58.13;102805.44;5113965;28;20066;-54
2022/10/06 10:55:27;;;;;;;8.90;1.77;;;;;;;20.22;57.90;102801.66;5113370;28;20498;-53
2022/10/06 10:57:59;;;;;;;10.35;2.00;;;;;;;20.54;60.30;102817.03;5112482;28;20104;-52
2022/10/06 11:00:32;;;;;;;10.70;2.03;;;;;;;20.29;58.49;102812.72;5115092;28;20094;-54
2022/10/06 11:03:01;;;;;;;8.38;1.50;;;;;;;21.01;58.66;102814.34;5114831;28;20055;-53
2022/10/06 11:05:42;;;;;;;9.00;1.55;;;;;;;21.52;56.00;102812.97;5112010;28;20044;-53
2022/10/06 11:08:17;;;;;;;10.00;1.80;;;;;;;21.94;54.74;102806.94;5112439;28;20062;-54
2022/10/06 11:10:51;;;;;;;9.75;1.70;;;;;;;22.38;54.59;102810.38;5114812;28;20104;-51
2022/10/06 11:13:27;;;;;;;8.43;1.75;;;;;;;22.64;53.45;102810.00;5111548;28;20040;-54
2022/10/06 11:16:18;;;;;;;7.43;1.60;;;;;;;22.00;53.99;102806.41;5112072;28;20047;-54
2022/10/06 11:19:13;;;;;;;11.52;2.05;;;;;;;21.90;55.37;102813.50;5109815;28;20229;-56
2022/10/06 11:21:53;;;;;;;11.50;1.95;;;;;;;22.78;54.03;102811.47;5115166;28;20406;-53
2022/10/06 11:24:31;;;;;;;9.02;1.90;;;;;;;23.02;53.87;102811.16;5115141;28;20379;-54
2022/10/06 11:27:25;;;;;;;6.30;1.30;;;;;;;22.24;52.72;102813.38;5096875;28;20051;-55
2022/10/06 11:30:02;;;;;;;9.65;1.70;;;;;;;21.74;52.13;102814.75;5115001;28;20062;-54
2022/10/06 11:32:42;;;;;;;10.32;1.90;;;;;;;20.92;51.57;102812.41;5096836;28;20498;-59
2022/10/06 11:35:18;;;;;;;7.10;1.60;;;;;;;20.56;54.10;102814.25;5112954;28;20062;-60
2022/10/06 11:37:52;;;;;;;8.35;1.70;;;;;;;21.09;52.67;102817.28;5112940;28;20520;-59
2022/10/06 11:40:38;;;;;;;7.38;1.58;;;;;;;21.76;53.89;102810.16;5112320;28;20066;-60
2022/10/06 11:43:16;;;;;;;7.05;1.50;;;;;;;21.74;51.31;102816.59;5111251;28;20051;-60
2022/10/06 11:45:54;;;;;;;11.05;1.60;;;;;;;21.34;51.37;102807.28;5112611;28;20043;-61
2022/10/06 11:48:28;;;;;;;5.57;1.42;;;;;;;21.35;53.36;102809.00;5111051;28;20051;-60
2022/10/06 11:51:17;;;;;;;6.68;1.63;;;;;;;21.14;51.75;102816.06;5113443;28;20044;-60
2022/10/06 11:53:45;;;;;;;10.75;1.90;;;;;;;21.04;54.24;102821.28;5111812;28;20058;-59
2022/10/06 11:56:38;;;;;;;6.05;1.63;;;;;;;21.25;54.01;102808.00;5093512;28;20036;-59
2022/10/06 11:59:25;;;;;;;7.43;1.75;;;;;;;21.86;53.32;102809.38;5078208;28;20051;-60
2022/10/06 12:01:59;;;;;;;11.40;1.77;;;;;;;21.78;53.57;102808.19;5112428;28;20048;-59
2022/10/06 12:04:28;;;;;;;9.15;1.90;;;;;;;21.51;52.03;102807.75;5111619;28;20629;-60
2022/10/06 12:06:59;;;;;;;9.73;1.85;;;;;;;21.28;52.06;102807.75;5112231;28;20070;-59
2022/10/06 12:09:46;;;;;;;4.45;1.05;;;;;;;21.60;51.00;102804.34;5111918;28;20035;-60
2022/10/06 12:12:46;;;;;;;7.72;1.50;;;;;;;21.50;50.79;102798.00;5111499;28;20131;-59
2022/10/06 12:15:59;;;;;;;9.00;1.48;;;;;;;21.44;52.22;102800.19;5112325;28;20513;-59
2022/10/06 12:19:02;;;;;;;9.90;2.03;;;;;;;20.89;52.67;102801.94;5111229;28;20546;-60
2022/10/06 12:21:47;;;;;;;9.20;1.70;;;;;;;21.56;52.78;102801.06;5113508;28;20047;-59
2022/10/06 12:24:30;;;;;;;11.38;1.45;;;;;;;21.88;51.95;102800.25;5113164;28;20051;-59
2022/10/06 12:27:16;;;;;;;6.60;1.40;;;;;;;22.60;51.46;102787.94;5111966;28;20082;-59
2022/10/06 12:29:55;;;;;;;11.70;1.90;;;;;;;22.88;49.72;102796.28;5111704;28;20139;-59
2022/10/06 12:32:46;;;;;;;7.65;1.85;;;;;;;23.06;47.76;102790.28;5110064;28;20043;-60
2022/10/06 12:35:23;;;;;;;7.07;1.38;;;;;;;22.47;48.33;102786.47;5111178;28;20051;-59
2022/10/06 12:37:52;;;;;;;9.77;1.60;;;;;;;22.49;49.52;102790.72;5093536;28;20047;-59
2022/10/06 12:40:48;;;;;;;7.57;1.45;;;;;;;21.84;50.44;102788.09;5113617;28;20040;-58
2022/10/06 12:43:56;;;;;;;7.88;1.80;;;;;;;21.71;51.33;102790.09;5112971;28;20051;-59
2022/10/06 12:46:33;;;;;;;6.15;1.38;;;;;;;21.60;51.52;102789.13;5111081;28;20551;-59